Time;durP1;ratioP1;P1;durP2;ratioP2;P2;SDS_P1;SDS_P2;PMS_P1;PMS_P2;Temp;Humidity;BMP_temperature;BMP_pressure;BME280_temperature;BME280_humidity;BME280_pressure;Samples;Min_cycle;Max_cycle;Signal;HPM_P1;HPM_P2
2021/04/02 00:00:51;;;;;;;52.78;26.73;;;14.00;90.70;;;;;;5035666;28;20079;-86
2021/04/02 00:03:22;;;;;;;56.65;25.70;;;14.00;91.00;;;;;;5052980;28;20075;-86
2021/04/02 00:05:50;;;;;;;62.10;27.80;;;14.00;90.90;;;;;;5051931;28;20020;-86
2021/04/02 00:08:16;;;;;;;46.15;22.98;;;13.90;91.00;;;;;;5052005;28;20163;-86
2021/04/02 00:10:54;;;;;;;52.22;25.02;;;13.90;90.90;;;;;;5051877;28;20159;-86
2021/04/02 00:13:21;;;;;;;56.38;25.45;;;13.90;91.20;;;;;;5051905;28;20115;-86
2021/04/02 00:15:48;;;;;;;56.35;28.58;;;13.70;91.50;;;;;;5052528;28;20028;-86
2021/04/02 00:18:16;;;;;;;60.05;27.27;;;13.70;91.70;;;;;;5053102;28;20389;-86
2021/04/02 00:20:42;;;;;;;51.00;25.38;;;13.80;91.70;;;;;;5051809;28;20094;-86
2021/04/02 00:23:08;;;;;;;50.90;25.17;;;13.80;91.70;;;;;;5051793;28;20025;-86
2021/04/02 00:25:35;;;;;;;57.75;30.52;;;13.70;91.70;;;;;;5052933;28;20031;-86
2021/04/02 00:28:05;;;;;;;47.35;23.98;;;13.70;92.00;;;;;;5053023;28;20033;-86
2021/04/02 00:30:41;;;;;;;53.63;28.02;;;13.70;92.00;;;;;;5037117;28;20071;-86
2021/04/02 00:33:08;;;;;;;52.50;27.45;;;13.60;92.30;;;;;;5036696;28;20105;-86
2021/04/02 00:35:35;;;;;;;48.20;25.52;;;13.60;92.40;;;;;;5018964;28;20469;-86
2021/04/02 00:38:01;;;;;;;51.03;28.17;;;13.60;92.40;;;;;;5018856;28;20034;-86
2021/04/02 00:40:35;;;;;;;56.10;27.25;;;13.60;92.50;;;;;;5036594;28;20033;-86
2021/04/02 00:43:01;;;;;;;49.75;25.60;;;13.50;92.90;;;;;;5018982;28;20451;-86
2021/04/02 00:45:26;;;;;;;47.78;24.27;;;13.50;93.00;;;;;;5018815;28;20108;-86
2021/04/02 00:47:54;;;;;;;47.78;26.23;;;13.50;92.90;;;;;;5018736;28;20440;-86
2021/04/02 00:50:25;;;;;;;56.67;31.30;;;13.40;93.20;;;;;;5018701;28;20474;-86
2021/04/02 00:52:51;;;;;;;60.00;29.88;;;13.30;93.70;;;;;;5018728;28;20116;-86
2021/04/02 00:55:17;;;;;;;37.17;19.85;;;13.20;93.80;;;;;;5018643;28;20433;-86
2021/04/02 00:57:44;;;;;;;52.75;26.10;;;13.60;93.00;;;;;;5018612;28;20033;-86
2021/04/02 01:00:11;;;;;;;56.78;28.67;;;13.70;92.80;;;;;;5036217;28;20041;-86
2021/04/02 01:02:38;;;;;;;51.83;27.10;;;13.60;92.90;;;;;;5018414;28;20028;-86
2021/04/02 01:05:12;;;;;;;50.28;27.52;;;13.50;93.30;;;;;;5018414;28;20021;-86
2021/04/02 01:07:38;;;;;;;52.40;26.75;;;13.20;93.80;;;;;;5036447;28;20440;-86
2021/04/02 01:10:10;;;;;;;55.38;28.60;;;13.20;94.00;;;;;;5018170;28;20064;-86
2021/04/02 01:12:36;;;;;;;48.38;27.70;;;13.10;94.40;;;;;;5018280;28;20021;-86
2021/04/02 01:15:20;;;;;;;51.03;29.67;;;13.10;94.40;;;;;;5018124;28;20338;-86
2021/04/02 01:17:51;;;;;;;54.40;27.70;;;13.10;94.60;;;;;;5035966;28;20389;-87
2021/04/02 01:20:20;;;;;;;54.33;26.70;;;13.00;94.70;;;;;;5035913;28;20030;-86
2021/04/02 01:22:47;;;;;;;52.17;27.25;;;13.00;94.70;;;;;;5018094;28;20029;-86
2021/04/02 01:25:23;;;;;;;44.42;23.63;;;13.10;94.70;;;;;;5018052;28;20481;-85
2021/04/02 01:28:05;;;;;;;59.88;25.63;;;13.00;94.90;;;;;;5035858;28;20029;-86
2021/04/02 01:30:33;;;;;;;62.95;31.75;;;13.00;95.10;;;;;;5037821;28;20068;-86
2021/04/02 01:33:01;;;;;;;45.72;25.83;;;12.90;95.30;;;;;;5037713;28;20021;-87
2021/04/02 01:35:34;;;;;;;54.15;27.20;;;12.80;95.50;;;;;;5037643;28;20392;-86
2021/04/02 01:38:11;;;;;;;55.45;27.20;;;12.90;95.60;;;;;;5037488;28;20057;-86
2021/04/02 01:40:41;;;;;;;59.05;31.45;;;12.90;95.80;;;;;;5037610;28;20112;-86
2021/04/02 01:43:11;;;;;;;67.78;33.03;;;12.80;96.00;;;;;;5037780;28;20049;-86
2021/04/02 01:45:39;;;;;;;47.65;26.05;;;12.70;96.20;;;;;;5037457;28;20028;-86
2021/04/02 01:48:06;;;;;;;46.42;22.40;;;12.70;96.30;;;;;;5055223;28;20029;-86
2021/04/02 01:50:36;;;;;;;39.08;22.25;;;12.80;96.30;;;;;;5037359;28;20028;-86
2021/04/02 01:53:04;;;;;;;54.17;26.77;;;12.80;96.00;;;;;;5055225;28;20052;-86
2021/04/02 01:55:30;;;;;;;52.30;25.92;;;13.20;95.30;;;;;;5037284;28;20540;-86
2021/04/02 01:57:56;;;;;;;50.63;27.35;;;13.30;95.00;;;;;;5037237;28;20041;-86
2021/04/02 02:00:34;;;;;;;51.30;26.70;;;13.10;95.30;;;;;;5037163;28;20025;-86
2021/04/02 02:03:00;;;;;;;44.50;25.73;;;12.90;95.50;;;;;;5037212;28;20498;-86
2021/04/02 02:05:29;;;;;;;53.90;26.58;;;12.50;95.90;;;;;;5037047;28;20031;-86
2021/04/02 02:07:59;;;;;;;55.75;28.20;;;12.40;96.20;;;;;;5036980;28;20074;-86
2021/04/02 02:10:26;;;;;;;47.22;25.35;;;12.20;96.60;;;;;;5036955;28;20025;-86
2021/04/02 02:12:54;;;;;;;50.65;28.10;;;12.20;96.90;;;;;;5036933;28;20425;-86
2021/04/02 02:15:20;;;;;;;55.42;26.70;;;12.10;97.20;;;;;;5036795;28;20021;-86
2021/04/02 02:17:53;;;;;;;54.75;30.77;;;12.00;97.50;;;;;;5036846;28;20032;-86
2021/04/02 02:20:20;;;;;;;51.88;27.13;;;12.00;97.50;;;;;;5036787;28;20025;-86
2021/04/02 02:22:45;;;;;;;45.33;26.95;;;11.90;97.90;;;;;;5054685;28;20044;-86
2021/04/02 02:25:12;;;;;;;49.90;27.75;;;11.80;98.20;;;;;;5036667;28;20033;-86
2021/04/02 02:27:39;;;;;;;47.65;26.63;;;11.80;98.20;;;;;;5036574;28;20025;-86
2021/04/02 02:30:19;;;;;;;46.78;24.60;;;11.90;97.90;;;;;;5038413;28;20120;-86
2021/04/02 02:32:45;;;;;;;56.60;27.10;;;11.70;98.00;;;;;;5016803;28;20155;-86
2021/04/02 02:35:12;;;;;;;40.65;22.13;;;11.50;98.70;;;;;;5016726;28;20052;-86
2021/04/02 02:37:43;;;;;;;43.47;25.30;;;11.60;99.40;;;;;;5016628;28;20031;-86
2021/04/02 02:40:13;;;;;;;50.22;27.17;;;11.80;98.70;;;;;;5016638;28;20473;-86
2021/04/02 02:42:39;;;;;;;48.42;26.65;;;12.10;97.90;;;;;;5016572;28;20116;-86
2021/04/02 02:45:07;;;;;;;52.30;26.45;;;12.00;98.10;;;;;;5016536;28;20477;-86
2021/04/02 02:47:34;;;;;;;54.13;26.98;;;11.90;98.50;;;;;;5016535;28;20029;-86
2021/04/02 02:50:01;;;;;;;47.65;26.33;;;11.70;98.90;;;;;;5015697;28;20036;-86
2021/04/02 02:52:28;;;;;;;47.20;27.40;;;11.70;99.20;;;;;;5016441;28;20404;-86
2021/04/02 02:54:55;;;;;;;39.55;21.77;;;11.70;98.90;;;;;;5016457;28;20048;-86
2021/04/02 02:57:24;;;;;;;46.50;24.05;;;11.80;99.10;;;;;;5034051;28;20025;-86
2021/04/02 02:59:52;;;;;;;43.67;22.20;;;11.70;99.30;;;;;;5034296;28;20025;-86
2021/04/02 03:02:18;;;;;;;41.42;23.88;;;11.50;99.70;;;;;;5016325;28;20025;-86
2021/04/02 03:04:45;;;;;;;34.25;21.85;;;11.50;99.70;;;;;;5016274;28;20079;-86
2021/04/02 03:07:12;;;;;;;45.58;23.27;;;11.40;99.90;;;;;;5016172;28;20029;-86
2021/04/02 03:09:40;;;;;;;47.83;24.50;;;11.50;99.90;;;;;;5016059;28;20025;-86
2021/04/02 03:12:08;;;;;;;49.03;25.63;;;11.30;99.90;;;;;;5033864;28;20078;-86
2021/04/02 03:14:35;;;;;;;42.15;21.35;;;11.10;99.90;;;;;;5016315;28;20044;-86
2021/04/02 03:17:04;;;;;;;41.92;22.63;;;11.10;99.90;;;;;;5015964;28;20022;-86
2021/04/02 03:19:31;;;;;;;49.63;24.42;;;11.20;99.90;;;;;;5015974;28;20021;-86
2021/04/02 03:21:59;;;;;;;39.80;21.85;;;11.00;99.90;;;;;;5015938;28;20036;-86
2021/04/02 03:24:25;;;;;;;40.05;21.40;;;11.20;99.90;;;;;;5015897;28;20022;-86
2021/04/02 03:26:53;;;;;;;39.33;20.52;;;11.30;99.90;;;;;;5015862;28;20029;-86
2021/04/02 03:29:22;;;;;;;37.58;20.90;;;11.30;99.90;;;;;;5031313;28;20132;-86
2021/04/02 03:31:50;;;;;;;42.47;21.77;;;11.40;99.90;;;;;;5053551;28;20021;-86
2021/04/02 03:34:18;;;;;;;44.03;25.08;;;11.30;99.90;;;;;;5052163;28;20078;-86
2021/04/02 03:36:47;;;;;;;36.78;21.05;;;11.20;99.90;;;;;;5053414;28;20524;-86
2021/04/02 03:39:20;;;;;;;30.38;19.20;;;11.30;99.90;;;;;;5052172;28;20540;-86
2021/04/02 03:41:51;;;;;;;42.10;21.80;;;11.40;99.90;;;;;;5052165;28;20548;-85
2021/04/02 03:44:20;;;;;;;35.83;21.00;;;11.50;99.90;;;;;;5052143;28;20028;-87
2021/04/02 03:46:48;;;;;;;36.63;21.40;;;11.40;99.90;;;;;;5052042;28;20036;-86
2021/04/02 03:49:21;;;;;;;44.17;21.42;;;11.20;99.90;;;;;;5051958;28;20107;-86
2021/04/02 03:51:49;;;;;;;38.17;19.60;;;11.10;99.90;;;;;;5052135;28;20029;-86
2021/04/02 03:54:15;;;;;;;35.25;20.90;;;11.20;99.90;;;;;;5051969;28;20025;-86
2021/04/02 03:56:45;;;;;;;35.03;20.02;;;11.10;99.90;;;;;;5051976;28;20385;-86
2021/04/02 03:59:12;;;;;;;36.55;18.95;;;11.20;99.90;;;;;;5051969;28;20064;-86
2021/04/02 04:01:40;;;;;;;28.98;16.30;;;11.10;99.90;;;;;;5053986;28;20028;-85
2021/04/02 04:04:08;;;;;;;29.92;16.70;;;11.30;99.90;;;;;;5057274;28;20103;-86
2021/04/02 04:06:35;;;;;;;25.33;15.32;;;11.40;99.90;;;;;;5055966;28;20389;-86
2021/04/02 04:09:08;;;;;;;31.92;15.75;;;11.40;99.90;;;;;;5055814;28;20108;-86
2021/04/02 04:11:35;;;;;;;23.77;13.32;;;11.50;99.90;;;;;;5055945;28;20445;-86
2021/04/02 04:14:02;;;;;;;28.02;13.90;;;11.40;99.90;;;;;;5055840;28;20384;-86
2021/04/02 04:16:29;;;;;;;31.65;13.57;;;11.40;99.90;;;;;;5055652;28;20469;-86
2021/04/02 04:18:58;;;;;;;28.08;14.27;;;11.50;99.90;;;;;;5055742;28;20115;-86
2021/04/02 04:21:26;;;;;;;28.15;14.60;;;11.40;99.90;;;;;;5055652;28;20029;-86
2021/04/02 04:23:52;;;;;;;26.63;14.07;;;11.40;99.90;;;;;;5055586;28;20025;-86
2021/04/02 04:26:21;;;;;;;23.83;12.38;;;11.30;99.90;;;;;;5055601;28;20059;-86
2021/04/02 04:28:51;;;;;;;30.88;14.93;;;11.50;99.90;;;;;;5055254;28;20102;-86
2021/04/02 04:31:21;;;;;;;28.17;15.00;;;11.10;99.90;;;;;;5055512;28;20021;-86
2021/04/02 04:33:49;;;;;;;31.33;15.18;;;11.00;99.90;;;;;;5055463;28;20025;-86
2021/04/02 04:36:16;;;;;;;27.88;14.63;;;11.00;99.90;;;;;;5055377;28;20065;-86
2021/04/02 04:38:42;;;;;;;26.45;13.93;;;11.30;99.90;;;;;;5055358;28;20158;-86
2021/04/02 04:41:09;;;;;;;25.27;13.48;;;11.20;99.90;;;;;;5055292;28;20108;-86
2021/04/02 04:43:37;;;;;;;24.15;13.77;;;11.40;99.90;;;;;;5055230;28;20040;-86
2021/04/02 04:46:03;;;;;;;23.02;13.13;;;11.20;99.90;;;;;;5055199;28;20388;-86
2021/04/02 04:48:30;;;;;;;20.67;11.85;;;10.90;99.90;;;;;;5055125;28;20096;-86
2021/04/02 04:50:57;;;;;;;25.10;14.18;;;10.80;99.90;;;;;;5055106;28;20480;-86
2021/04/02 04:53:32;;;;;;;20.83;10.95;;;10.80;99.90;;;;;;5055135;28;20051;-85
2021/04/02 04:56:01;;;;;;;23.50;12.15;;;10.60;99.90;;;;;;5055026;28;20022;-86
2021/04/02 04:58:31;;;;;;;21.02;11.52;;;10.30;99.90;;;;;;5056310;28;20468;-86
2021/04/02 05:01:00;;;;;;;13.05;9.00;;;10.40;99.90;;;;;;5055788;28;20020;-86
2021/04/02 05:03:27;;;;;;;21.17;10.75;;;10.60;99.90;;;;;;5054897;28;20040;-86
2021/04/02 05:05:57;;;;;;;25.85;11.60;;;10.70;99.90;;;;;;5054837;28;20021;-86
2021/04/02 05:08:29;;;;;;;15.68;9.38;;;10.50;99.90;;;;;;5054806;28;20037;-86
2021/04/02 05:10:56;;;;;;;16.42;9.05;;;10.60;99.90;;;;;;5054944;28;20025;-86
2021/04/02 05:13:24;;;;;;;22.73;9.32;;;10.60;99.90;;;;;;5054667;28;20029;-86
2021/04/02 05:15:52;;;;;;;19.25;8.98;;;10.60;99.90;;;;;;5054567;28;20025;-86
2021/04/02 05:18:19;;;;;;;15.02;8.05;;;10.50;99.90;;;;;;5054694;28;20032;-86
2021/04/02 05:20:46;;;;;;;16.35;8.20;;;10.60;99.90;;;;;;5054615;28;20022;-86
2021/04/02 05:23:15;;;;;;;19.60;9.93;;;10.50;99.90;;;;;;5054649;28;20472;-86
2021/04/02 05:25:41;;;;;;;14.95;8.20;;;10.30;99.90;;;;;;5054576;28;20053;-86
2021/04/02 05:28:07;;;;;;;12.88;7.53;;;10.20;99.90;;;;;;5054221;28;20060;-86
2021/04/02 05:30:35;;;;;;;16.10;7.40;;;10.10;99.90;;;;;;5054235;28;20128;-86
2021/04/02 05:33:01;;;;;;;13.02;7.28;;;10.00;99.90;;;;;;5055636;28;20103;-86
2021/04/02 05:35:26;;;;;;;17.52;7.75;;;10.20;99.90;;;;;;5054297;28;20028;-86
2021/04/02 05:37:52;;;;;;;12.43;6.50;;;10.30;99.90;;;;;;5055502;28;20021;-86
2021/04/02 05:40:19;;;;;;;13.85;6.55;;;10.40;99.90;;;;;;5054159;28;20083;-86
2021/04/02 05:43:11;;;;;;;14.63;6.93;;;10.60;99.90;;;;;;5054165;28;20475;-86
2021/04/02 05:45:38;;;;;;;14.88;6.47;;;10.30;99.90;;;;;;5054043;28;20365;-86
2021/04/02 05:48:05;;;;;;;13.13;6.22;;;10.20;99.90;;;;;;5053965;28;20480;-86
2021/04/02 05:50:33;;;;;;;13.55;6.47;;;10.40;99.90;;;;;;5053842;28;20025;-86
2021/04/02 05:53:04;;;;;;;12.13;6.22;;;10.40;99.90;;;;;;5053889;28;20461;-86
2021/04/02 05:55:36;;;;;;;13.88;5.40;;;10.30;99.90;;;;;;5055179;28;20350;-86
2021/04/02 05:58:03;;;;;;;11.70;5.68;;;10.40;99.90;;;;;;5055127;28;20049;-86
2021/04/02 06:00:29;;;;;;;13.43;5.47;;;10.50;99.90;;;;;;5053777;28;20029;-86
2021/04/02 06:02:57;;;;;;;11.60;5.53;;;10.60;99.90;;;;;;5053733;28;20031;-86
2021/04/02 06:05:23;;;;;;;11.05;4.85;;;10.60;99.90;;;;;;5054430;28;20020;-86
2021/04/02 06:07:49;;;;;;;11.10;4.75;;;10.90;99.90;;;;;;5053658;28;20116;-86
2021/04/02 06:10:15;;;;;;;10.75;5.03;;;11.00;99.90;;;;;;5053605;28;20056;-86
2021/04/02 06:12:41;;;;;;;11.07;4.38;;;10.80;99.90;;;;;;5053645;28;20473;-86
2021/04/02 06:15:09;;;;;;;9.73;4.60;;;10.80;99.90;;;;;;5053576;28;20377;-86
2021/04/02 06:17:57;;;;;;;10.30;5.03;;;10.90;99.90;;;;;;5053350;28;20021;-86
2021/04/02 06:20:32;;;;;;;10.85;4.60;;;10.80;99.80;;;;;;5053420;28;20091;-86
2021/04/02 06:23:04;;;;;;;11.80;4.35;;;10.90;99.90;;;;;;5053456;28;20120;-86
2021/04/02 06:25:30;;;;;;;9.70;4.40;;;10.90;99.90;;;;;;5053240;28;20036;-86
2021/04/02 06:27:56;;;;;;;12.45;4.40;;;10.90;99.90;;;;;;5053598;28;20032;-86
2021/04/02 06:30:23;;;;;;;14.85;4.32;;;10.90;99.90;;;;;;5036207;28;20056;-86
2021/04/02 06:32:53;;;;;;;12.07;4.60;;;11.00;99.60;;;;;;5016814;28;20469;-87
2021/04/02 06:35:22;;;;;;;6.22;3.67;;;11.00;99.40;;;;;;5034464;28;20018;-85
2021/04/02 06:37:54;;;;;;;7.38;3.20;;;11.10;99.60;;;;;;5016717;28;20033;-86
2021/04/02 06:40:21;;;;;;;11.43;4.20;;;11.10;99.90;;;;;;5016747;28;20366;-86
2021/04/02 06:42:47;;;;;;;8.32;3.75;;;11.10;98.10;;;;;;5034318;28;20033;-86
2021/04/02 06:45:13;;;;;;;11.00;4.38;;;10.90;98.80;;;;;;5016531;28;20117;-86
2021/04/02 06:47:41;;;;;;;11.48;4.20;;;10.90;99.40;;;;;;5034140;28;20075;-86
2021/04/02 06:50:24;;;;;;;8.93;4.00;;;10.90;98.70;;;;;;5016308;28;20481;-86
2021/04/02 06:52:52;;;;;;;9.30;3.83;;;10.90;98.40;;;;;;5016420;28;20113;-86
2021/04/02 06:55:19;;;;;;;7.68;3.47;;;10.90;98.20;;;;;;5016309;28;20053;-87
2021/04/02 06:57:53;;;;;;;7.20;3.38;;;11.00;97.40;;;;;;5015987;28;20064;-85
2021/04/02 07:00:24;;;;;;;7.93;3.00;;;10.90;98.00;;;;;;5034035;28;20037;-84
2021/04/02 07:02:51;;;;;;;12.50;3.50;;;11.10;98.80;;;;;;5033937;28;20028;-85
2021/04/02 07:05:22;;;;;;;9.93;3.17;;;11.30;97.90;;;;;;5016161;28;20029;-84
2021/04/02 07:07:53;;;;;;;8.15;3.50;;;11.20;97.60;;;;;;5016114;28;20047;-85
2021/04/02 07:10:21;;;;;;;10.70;3.20;;;11.20;96.90;;;;;;5016169;28;20042;-85
2021/04/02 07:12:50;;;;;;;7.68;3.15;;;11.10;96.70;;;;;;5016153;28;20025;-84
2021/04/02 07:15:17;;;;;;;12.63;3.78;;;11.40;96.40;;;;;;5033766;28;20017;-85
2021/04/02 07:17:46;;;;;;;8.00;3.67;;;11.30;96.30;;;;;;5033671;28;20423;-85
2021/04/02 07:20:14;;;;;;;6.20;3.60;;;11.40;96.50;;;;;;5015986;28;20443;-85
2021/04/02 07:22:41;;;;;;;9.10;3.50;;;11.40;96.40;;;;;;5015930;28;20056;-85
2021/04/02 07:25:09;;;;;;;12.43;4.00;;;11.40;96.00;;;;;;5016204;28;20600;-85
2021/04/02 07:27:35;;;;;;;10.18;3.22;;;11.60;95.70;;;;;;5032394;28;20079;-85
2021/04/02 07:30:04;;;;;;;10.60;3.83;;;11.60;95.90;;;;;;5042880;28;20056;-84
2021/04/02 07:32:31;;;;;;;7.72;3.05;;;11.70;95.60;;;;;;5052170;28;20017;-85
2021/04/02 07:34:57;;;;;;;6.82;3.33;;;11.60;95.80;;;;;;5052161;28;20025;-85
2021/04/02 07:37:23;;;;;;;9.30;3.40;;;11.60;96.00;;;;;;5051714;28;20481;-85
2021/04/02 07:39:53;;;;;;;8.85;3.17;;;11.70;94.90;;;;;;5052423;28;20078;-85
2021/04/02 07:42:22;;;;;;;13.20;3.85;;;12.00;95.40;;;;;;5052016;28;20032;-85
2021/04/02 07:44:55;;;;;;;7.22;2.90;;;12.00;93.80;;;;;;5053323;28;20079;-84
2021/04/02 07:47:22;;;;;;;11.05;3.60;;;12.10;94.40;;;;;;5052041;28;20484;-84
2021/04/02 07:49:48;;;;;;;6.45;3.90;;;12.10;93.80;;;;;;5051969;28;20061;-84
2021/04/02 07:52:15;;;;;;;9.63;3.97;;;12.00;93.80;;;;;;5051973;28;20048;-84
2021/04/02 07:54:44;;;;;;;9.48;3.65;;;12.00;94.30;;;;;;5051961;28;20361;-85
2021/04/02 07:57:16;;;;;;;9.18;4.30;;;12.10;94.50;;;;;;5051980;28;20018;-85
2021/04/02 07:59:42;;;;;;;8.27;4.25;;;12.30;93.50;;;;;;5051926;28;20033;-84
2021/04/02 08:02:16;;;;;;;7.25;2.92;;;12.50;93.70;;;;;;5053133;28;20039;-85
2021/04/02 08:04:55;;;;;;;11.10;4.03;;;12.70;93.70;;;;;;5051919;28;20040;-84
2021/04/02 08:07:42;;;;;;;5.80;3.40;;;12.70;92.90;;;;;;5051854;28;20144;-85
2021/04/02 08:10:12;;;;;;;6.50;3.75;;;12.90;93.40;;;;;;5052588;28;20029;-85
2021/04/02 08:12:38;;;;;;;10.82;4.05;;;12.90;93.20;;;;;;5053076;28;20025;-84
2021/04/02 08:15:11;;;;;;;6.15;3.35;;;12.80;93.00;;;;;;5051800;28;20583;-84
2021/04/02 08:17:38;;;;;;;7.05;3.72;;;13.20;93.00;;;;;;5051392;28;20159;-84
2021/04/02 08:20:08;;;;;;;10.18;4.22;;;13.20;92.70;;;;;;5051679;28;20476;-85
2021/04/02 08:22:35;;;;;;;12.07;4.13;;;13.20;92.40;;;;;;5051714;28;20029;-84
2021/04/02 08:25:06;;;;;;;8.60;4.32;;;13.30;92.30;;;;;;5051751;28;20392;-84
2021/04/02 08:27:32;;;;;;;9.15;3.97;;;13.50;91.70;;;;;;5051950;28;20033;-84
2021/04/02 08:30:05;;;;;;;11.52;4.88;;;13.70;91.50;;;;;;5051416;28;20048;-84
2021/04/02 08:32:36;;;;;;;5.18;2.90;;;13.40;91.10;;;;;;5051885;28;20100;-84
2021/04/02 08:35:03;;;;;;;7.22;3.65;;;13.50;92.30;;;;;;5051579;28;20064;-84
2021/04/02 08:37:29;;;;;;;6.40;4.00;;;13.40;92.30;;;;;;5051533;28;20017;-84
2021/04/02 08:39:58;;;;;;;11.60;5.00;;;13.40;91.40;;;;;;5051540;28;20044;-84
2021/04/02 08:42:28;;;;;;;8.23;3.85;;;13.50;91.30;;;;;;5053053;28;20028;-84
2021/04/02 08:44:54;;;;;;;8.07;4.10;;;13.40;91.70;;;;;;5052822;28;20051;-83
2021/04/02 08:47:20;;;;;;;6.85;3.78;;;13.70;91.30;;;;;;5051410;28;20025;-84
2021/04/02 08:49:54;;;;;;;6.97;3.50;;;13.70;91.00;;;;;;5054678;28;20435;-83
2021/04/02 08:52:22;;;;;;;8.18;3.90;;;13.80;90.70;;;;;;5055359;28;20108;-84
2021/04/02 08:54:53;;;;;;;9.77;4.00;;;13.80;90.80;;;;;;5055053;28;20392;-84
2021/04/02 08:57:21;;;;;;;10.95;3.90;;;13.80;91.00;;;;;;5055059;28;20021;-84
2021/04/02 08:59:47;;;;;;;8.38;4.10;;;14.00;90.70;;;;;;5054964;28;20052;-84
2021/04/02 09:02:14;;;;;;;10.38;4.25;;;14.00;89.70;;;;;;5054999;28;20036;-84
2021/04/02 09:04:46;;;;;;;9.82;4.53;;;14.00;90.90;;;;;;5055265;28;20041;-84
2021/04/02 09:07:12;;;;;;;7.85;4.93;;;14.00;89.00;;;;;;5054922;28;20032;-83
2021/04/02 09:09:44;;;;;;;7.32;4.57;;;14.10;90.30;;;;;;5054848;28;20025;-83
2021/04/02 09:12:13;;;;;;;9.52;4.85;;;14.10;90.10;;;;;;5054762;28;20021;-84
2021/04/02 09:14:44;;;;;;;10.68;5.55;;;14.50;89.20;;;;;;5054636;28;20021;-83
2021/04/02 09:17:19;;;;;;;7.85;4.18;;;14.80;87.90;;;;;;5054862;28;20032;-83
2021/04/02 09:19:45;;;;;;;6.65;4.32;;;14.70;88.40;;;;;;5054688;28;20029;-83
2021/04/02 09:22:12;;;;;;;9.30;4.60;;;14.70;88.50;;;;;;5054552;28;20079;-83
2021/04/02 09:24:42;;;;;;;7.20;4.38;;;14.70;88.70;;;;;;5054467;28;20021;-82
2021/04/02 09:27:11;;;;;;;6.55;3.53;;;14.60;88.50;;;;;;5054397;28;20025;-83
2021/04/02 09:29:37;;;;;;;7.13;4.55;;;15.10;88.20;;;;;;5054098;28;20052;-83
2021/04/02 09:32:04;;;;;;;5.78;3.92;;;15.00;85.60;;;;;;5054389;28;20476;-83
2021/04/02 09:34:31;;;;;;;7.93;3.78;;;14.90;87.20;;;;;;5054262;28;20075;-84
2021/04/02 09:36:57;;;;;;;7.80;4.20;;;15.20;86.90;;;;;;5054249;28;20021;-83
2021/04/02 09:39:29;;;;;;;7.43;5.05;;;15.40;85.80;;;;;;5054256;28;20033;-84
2021/04/02 09:42:00;;;;;;;7.30;3.67;;;15.40;84.60;;;;;;5054080;28;20029;-83
2021/04/02 09:44:36;;;;;;;6.68;4.22;;;15.30;85.30;;;;;;5054116;28;20381;-83
2021/04/02 09:47:12;;;;;;;10.95;4.38;;;15.40;85.60;;;;;;5054077;28;20024;-83
2021/04/02 09:49:39;;;;;;;11.27;5.72;;;15.60;84.60;;;;;;5053956;28;20121;-83
2021/04/02 09:52:07;;;;;;;9.50;4.70;;;15.90;84.20;;;;;;5053939;28;20021;-83
2021/04/02 09:54:34;;;;;;;8.50;4.90;;;16.10;83.20;;;;;;5054422;28;20028;-83
2021/04/02 09:57:05;;;;;;;10.85;5.50;;;16.10;83.40;;;;;;5053911;28;20027;-82
2021/04/02 09:59:31;;;;;;;13.15;4.32;;;16.40;82.50;;;;;;5053578;28;20481;-83
2021/04/02 10:01:57;;;;;;;8.80;4.85;;;16.70;82.40;;;;;;5053812;28;20029;-83
2021/04/02 10:04:25;;;;;;;8.02;4.70;;;16.70;81.30;;;;;;5053775;28;20121;-83
2021/04/02 10:06:51;;;;;;;7.18;4.80;;;16.80;80.60;;;;;;5053748;28;20495;-83
2021/04/02 10:09:17;;;;;;;6.28;4.45;;;16.80;80.60;;;;;;5053622;28;20021;-83
2021/04/02 10:11:45;;;;;;;8.30;5.75;;;17.10;79.50;;;;;;5053673;28;20025;-83
2021/04/02 10:14:12;;;;;;;8.05;5.43;;;16.80;79.60;;;;;;5053649;28;20025;-83
2021/04/02 10:16:38;;;;;;;8.73;5.20;;;16.80;78.20;;;;;;5053525;28;20036;-83
2021/04/02 10:19:05;;;;;;;4.90;3.33;;;16.70;80.30;;;;;;5053544;28;20384;-84
2021/04/02 10:21:32;;;;;;;8.80;5.22;;;16.50;80.10;;;;;;5054715;28;20028;-84
2021/04/02 10:23:59;;;;;;;9.57;6.18;;;16.30;81.10;;;;;;5053414;28;20025;-84
2021/04/02 10:26:25;;;;;;;5.88;3.80;;;16.70;78.70;;;;;;5053362;28;20031;-83
2021/04/02 10:28:51;;;;;;;7.43;4.63;;;17.30;77.70;;;;;;5053025;28;20474;-83
2021/04/02 10:31:17;;;;;;;5.40;3.58;;;17.40;76.80;;;;;;5053241;28;20104;-83
2021/04/02 10:33:43;;;;;;;6.13;3.95;;;17.60;75.90;;;;;;5053746;28;20021;-83
2021/04/02 10:36:09;;;;;;;6.93;4.70;;;17.80;76.30;;;;;;5053122;28;20357;-83
2021/04/02 10:38:36;;;;;;;7.70;4.30;;;17.70;74.60;;;;;;5054433;28;20155;-84
2021/04/02 10:41:02;;;;;;;8.90;4.07;;;17.60;75.10;;;;;;5053005;28;20025;-84
2021/04/02 10:43:28;;;;;;;6.30;4.70;;;18.00;74.00;;;;;;5054212;28;20530;-84
2021/04/02 10:45:53;;;;;;;9.38;4.32;;;18.40;72.20;;;;;;5053952;28;20028;-84
2021/04/02 10:48:19;;;;;;;8.20;4.15;;;18.70;71.50;;;;;;5052512;28;20144;-84
2021/04/02 10:50:46;;;;;;;5.53;4.22;;;18.40;72.30;;;;;;5054106;28;20055;-84
2021/04/02 10:53:13;;;;;;;7.60;4.72;;;18.10;72.30;;;;;;5054322;28;20025;-84
2021/04/02 10:55:39;;;;;;;6.47;4.20;;;18.30;71.70;;;;;;5052749;28;20051;-84
2021/04/02 10:58:06;;;;;;;5.95;3.70;;;18.60;70.60;;;;;;5052773;28;20021;-84
2021/04/02 11:00:33;;;;;;;5.25;3.65;;;18.70;70.80;;;;;;5052657;28;20024;-84
2021/04/02 11:03:00;;;;;;;6.13;4.20;;;19.40;69.10;;;;;;5052679;28;20439;-84
2021/04/02 11:05:26;;;;;;;7.93;5.28;;;19.30;66.90;;;;;;5052621;28;20476;-85
2021/04/02 11:07:51;;;;;;;6.35;3.67;;;19.60;66.10;;;;;;5052586;28;20287;-84
2021/04/02 11:10:17;;;;;;;12.18;4.13;;;19.90;65.20;;;;;;5051964;28;20028;-84
2021/04/02 11:12:43;;;;;;;5.35;4.13;;;19.50;63.70;;;;;;5052349;28;20025;-84
2021/04/02 11:15:12;;;;;;;7.20;3.72;;;19.40;64.30;;;;;;5052395;28;20029;-84
2021/04/02 11:17:42;;;;;;;6.20;3.70;;;19.30;67.20;;;;;;5052670;28;20021;-85
2021/04/02 11:20:10;;;;;;;6.22;3.70;;;19.50;66.20;;;;;;5053731;28;20074;-84
2021/04/02 11:22:37;;;;;;;5.60;3.67;;;19.90;65.50;;;;;;5053659;28;20021;-84
2021/04/02 11:25:09;;;;;;;6.80;4.40;;;19.90;63.60;;;;;;5052313;28;20503;-84
2021/04/02 11:27:35;;;;;;;5.72;4.15;;;19.90;64.10;;;;;;5053101;28;20025;-84
2021/04/02 11:30:06;;;;;;;6.85;3.70;;;20.30;63.30;;;;;;5038008;28;20053;-84
2021/04/02 11:32:32;;;;;;;6.28;4.97;;;20.30;62.80;;;;;;5015773;28;20025;-84
2021/04/02 11:34:57;;;;;;;4.72;3.72;;;20.10;62.10;;;;;;5015790;28;20362;-84
2021/04/02 11:37:23;;;;;;;7.13;3.38;;;20.40;62.80;;;;;;5015760;28;20480;-84
2021/04/02 11:39:49;;;;;;;5.25;3.85;;;20.50;63.30;;;;;;5016264;28;20083;-85
2021/04/02 11:42:15;;;;;;;4.75;3.33;;;20.60;61.40;;;;;;5033233;28;20017;-84
2021/04/02 11:44:41;;;;;;;5.75;4.00;;;21.10;59.90;;;;;;5015609;28;20060;-84
2021/04/02 11:47:07;;;;;;;6.32;3.22;;;20.70;58.30;;;;;;5015648;28;20493;-83
2021/04/02 11:49:33;;;;;;;5.03;3.28;;;21.00;59.00;;;;;;5015548;28;20026;-84
2021/04/02 11:51:59;;;;;;;4.88;3.25;;;20.70;60.00;;;;;;5033335;28;20025;-84
2021/04/02 11:54:26;;;;;;;9.27;3.70;;;20.60;60.00;;;;;;5015558;28;20366;-84
2021/04/02 11:56:52;;;;;;;5.43;3.97;;;20.60;59.00;;;;;;5015647;28;20067;-84
2021/04/02 11:59:18;;;;;;;6.38;4.28;;;20.80;58.90;;;;;;5015604;28;20029;-84
2021/04/02 12:01:43;;;;;;;6.15;3.40;;;21.20;58.70;;;;;;5015588;28;20409;-84
2021/04/02 12:04:10;;;;;;;7.13;3.83;;;21.70;57.90;;;;;;5015489;28;20029;-84
2021/04/02 12:06:39;;;;;;;7.00;5.10;;;21.80;56.80;;;;;;5015484;28;20076;-84
2021/04/02 12:09:06;;;;;;;6.00;4.07;;;21.70;55.80;;;;;;5015476;28;20465;-84
2021/04/02 12:11:32;;;;;;;5.18;3.85;;;21.70;56.70;;;;;;5015461;28;20050;-84
2021/04/02 12:13:58;;;;;;;5.47;3.30;;;21.70;56.90;;;;;;5015417;28;20036;-84
2021/04/02 12:16:24;;;;;;;4.60;3.33;;;22.10;55.80;;;;;;5033082;28;20029;-84
2021/04/02 12:18:50;;;;;;;5.65;3.60;;;21.90;56.20;;;;;;5015397;28;20116;-83
2021/04/02 12:21:16;;;;;;;6.43;2.63;;;21.50;56.10;;;;;;5015401;28;20101;-84
2021/04/02 12:23:43;;;;;;;4.45;3.60;;;21.70;57.00;;;;;;5018955;28;20029;-84
2021/04/02 12:26:08;;;;;;;7.32;4.22;;;21.10;56.50;;;;;;5036899;28;20473;-83
2021/04/02 12:28:34;;;;;;;6.43;2.88;;;21.70;55.30;;;;;;5018941;28;20108;-84
2021/04/02 12:31:01;;;;;;;3.55;3.08;;;22.30;54.70;;;;;;5036885;28;20025;-83
2021/04/02 12:33:28;;;;;;;4.45;2.75;;;22.30;54.50;;;;;;5019047;28;20368;-83
2021/04/02 12:35:54;;;;;;;4.82;3.08;;;22.80;54.40;;;;;;5036721;28;20021;-83
2021/04/02 12:38:20;;;;;;;3.15;2.83;;;22.60;53.50;;;;;;5018979;28;20036;-84
2021/04/02 12:40:45;;;;;;;5.35;3.15;;;22.60;53.10;;;;;;5019122;28;20078;-83
2021/04/02 12:43:11;;;;;;;9.20;3.53;;;22.40;53.30;;;;;;5018880;28;20025;-83